Time;durP1;ratioP1;P1;durP2;ratioP2;P2;SDS_P1;SDS_P2;PMS_P1;PMS_P2;Temp;Humidity;BMP_temperature;BMP_pressure;BME280_temperature;BME280_humidity;BME280_pressure;Samples;Min_cycle;Max_cycle;Signal;HPM_P1;HPM_P2
2022/06/02 00:02:26;;;;;;;7.07;5.00;;;13.70;99.90;;;;;;5113018;28;20039;-62
2022/06/02 00:05:18;;;;;;;8.18;5.50;;;13.70;99.90;;;;;;5108971;28;20108;-63
2022/06/02 00:08:05;;;;;;;5.80;4.95;;;13.60;99.90;;;;;;5071954;22;20056;-64
2022/06/02 00:11:09;;;;;;;8.70;5.63;;;13.60;99.90;;;;;;5108823;28;20046;-63
2022/06/02 00:13:48;;;;;;;13.98;5.45;;;13.60;99.90;;;;;;5110066;28;20393;-64
2022/06/02 00:16:25;;;;;;;8.10;5.68;;;13.50;99.90;;;;;;5113090;28;20050;-63
2022/06/02 00:18:58;;;;;;;6.30;4.73;;;13.50;99.90;;;;;;5094429;28;20056;-64
2022/06/02 00:21:25;;;;;;;8.07;5.68;;;13.50;99.90;;;;;;5072019;28;20786;-64
2022/06/02 00:23:59;;;;;;;;;;;13.50;99.90;;;;;;5072904;28;20066;-64
2022/06/02 00:26:45;;;;;;;10.55;5.50;;;13.50;99.90;;;;;;5073090;28;20270;-64
2022/06/02 00:29:36;;;;;;;7.75;5.07;;;13.50;99.90;;;;;;5071006;28;20304;-63
2022/06/02 00:32:10;;;;;;;7.60;5.00;;;13.40;99.90;;;;;;5072135;28;20036;-65
2022/06/02 00:34:42;;;;;;;5.82;4.82;;;13.40;99.90;;;;;;5072814;28;20578;-63
2022/06/02 00:37:23;;;;;;;8.00;5.25;;;13.40;99.90;;;;;;5092470;28;20051;-66
2022/06/02 00:39:52;;;;;;;9.05;5.75;;;13.40;99.90;;;;;;5092234;28;20101;-66
2022/06/02 00:42:32;;;;;;;6.75;4.80;;;13.40;99.90;;;;;;5080703;28;20032;-65
2022/06/02 00:45:15;;;;;;;7.15;5.40;;;13.40;99.90;;;;;;5084241;28;20102;-65
2022/06/02 00:47:48;;;;;;;8.32;6.10;;;13.40;99.90;;;;;;5092339;28;20462;-65
2022/06/02 00:50:38;;;;;;;8.85;6.18;;;13.30;99.90;;;;;;5078018;28;20097;-65
2022/06/02 00:53:10;;;;;;;7.75;6.20;;;13.30;99.90;;;;;;5085191;28;20450;-65
2022/06/02 00:59:17;;;;;;;9.65;5.70;;;13.30;99.90;;;;;;5093913;28;20047;-66
2022/06/02 01:01:44;;;;;;;11.95;6.30;;;13.30;99.90;;;;;;5081223;28;20044;-65
2022/06/02 01:04:15;;;;;;;8.05;6.85;;;13.40;99.90;;;;;;5091982;28;20097;-66
2022/06/02 01:06:45;;;;;;;9.40;7.47;;;13.40;99.90;;;;;;5092027;28;20044;-65
2022/06/02 01:09:20;;;;;;;10.20;7.10;;;13.40;99.90;;;;;;5084882;28;20036;-65
2022/06/02 01:12:25;;;;;;;13.02;7.30;;;13.40;99.90;;;;;;5090135;28;20399;-66
2022/06/02 01:15:16;;;;;;;10.52;7.15;;;13.40;99.90;;;;;;5069305;28;20121;-66
2022/06/02 01:18:20;;;;;;;12.23;7.43;;;13.40;99.90;;;;;;5082904;28;20048;-67
2022/06/02 01:20:56;;;;;;;9.73;6.90;;;13.40;99.90;;;;;;5081417;28;20048;-66
2022/06/02 01:23:42;;;;;;;10.50;7.32;;;13.50;99.90;;;;;;5092237;28;20442;-66
2022/06/02 01:26:36;;;;;;;9.73;6.47;;;13.50;99.90;;;;;;5087862;28;20048;-67
2022/06/02 01:29:26;;;;;;;7.32;6.57;;;13.40;99.90;;;;;;5079649;28;20044;-66
2022/06/02 01:32:01;;;;;;;9.25;6.78;;;13.40;99.90;;;;;;5040153;28;20114;-67
2022/06/02 01:34:41;;;;;;;7.85;6.95;;;13.50;99.90;;;;;;5078809;28;20047;-67
2022/06/02 01:37:32;;;;;;;8.55;6.55;;;13.50;99.90;;;;;;5084604;28;20047;-67
2022/06/02 01:40:18;;;;;;;9.32;5.40;;;13.40;99.90;;;;;;5090984;28;20082;-67
2022/06/02 01:43:12;;;;;;;7.20;5.60;;;13.30;99.90;;;;;;5091403;28;20496;-67
2022/06/02 01:46:10;;;;;;;8.50;5.60;;;13.30;99.90;;;;;;5080495;28;20128;-67
2022/06/02 01:48:56;;;;;;;10.77;6.28;;;13.20;99.90;;;;;;5091178;28;20048;-67
2022/06/02 01:51:43;;;;;;;12.23;6.50;;;13.20;99.90;;;;;;5091200;28;20052;-67
2022/06/02 01:54:42;;;;;;;9.55;7.22;;;13.20;99.90;;;;;;5075065;28;20078;-67
2022/06/02 01:57:11;;;;;;;12.73;8.25;;;13.20;99.90;;;;;;5071129;28;20051;-67
2022/06/02 02:00:05;;;;;;;15.10;7.93;;;13.20;99.90;;;;;;5071164;28;20106;-67
2022/06/02 02:02:45;;;;;;;9.13;7.40;;;13.10;99.90;;;;;;5071707;28;20051;-67
2022/06/02 02:05:46;;;;;;;13.32;7.78;;;13.20;99.90;;;;;;5085151;28;20052;-67
2022/06/02 02:08:37;;;;;;;10.40;5.75;;;13.10;99.90;;;;;;5092524;28;20106;-67
2022/06/02 02:11:41;;;;;;;10.07;6.22;;;13.20;99.90;;;;;;5094994;28;20044;-67
2022/06/02 02:14:38;;;;;;;9.02;6.38;;;13.20;99.90;;;;;;5088182;28;20036;-67
2022/06/02 02:17:14;;;;;;;8.88;6.63;;;13.30;99.90;;;;;;5095199;28;20043;-67
2022/06/02 02:19:47;;;;;;;7.70;6.30;;;13.20;99.90;;;;;;5095172;28;20105;-67
2022/06/02 02:22:34;;;;;;;7.90;6.18;;;13.30;99.90;;;;;;5074478;28;20036;-67
2022/06/02 02:25:07;;;;;;;7.40;5.85;;;13.30;99.90;;;;;;5074856;28;20040;-67
2022/06/02 02:28:03;;;;;;;11.23;6.03;;;13.20;99.90;;;;;;5073600;28;20051;-67
2022/06/02 02:30:56;;;;;;;9.65;5.95;;;13.20;99.90;;;;;;5048718;28;20484;-67
2022/06/02 02:33:47;;;;;;;7.88;5.90;;;13.20;99.90;;;;;;5064035;28;20053;-67
2022/06/02 02:36:29;;;;;;;8.93;6.00;;;13.20;99.90;;;;;;5074705;28;20134;-67
2022/06/02 02:39:16;;;;;;;9.98;5.57;;;13.20;99.90;;;;;;5085829;28;20036;-67
2022/06/02 02:42:09;;;;;;;7.47;5.75;;;13.10;99.90;;;;;;5094453;28;20040;-67
2022/06/02 02:44:44;;;;;;;7.30;4.95;;;13.10;99.90;;;;;;5091839;28;20891;-67
2022/06/02 02:47:19;;;;;;;7.05;5.03;;;13.00;99.90;;;;;;5079344;28;20028;-67
2022/06/02 02:50:11;;;;;;;7.88;4.85;;;13.00;99.90;;;;;;5094490;28;20116;-67
2022/06/02 02:53:06;;;;;;;5.03;4.35;;;12.90;99.90;;;;;;5094597;28;20048;-67
2022/06/02 02:55:53;;;;;;;7.05;3.33;;;12.90;99.90;;;;;;5092586;28;20040;-67
2022/06/02 02:58:44;;;;;;;5.72;3.70;;;12.90;99.90;;;;;;5094194;28;20061;-66
2022/06/02 03:01:48;;;;;;;9.57;4.97;;;12.90;99.90;;;;;;5094013;28;20453;-66
2022/06/02 03:04:35;;;;;;;7.85;5.60;;;12.90;99.90;;;;;;5088393;28;20028;-67
2022/06/02 03:07:02;;;;;;;10.23;6.22;;;12.90;99.90;;;;;;5094168;28;20051;-66
2022/06/02 03:09:53;;;;;;;9.63;5.82;;;12.90;99.90;;;;;;5094021;28;20047;-66
2022/06/02 03:12:42;;;;;;;8.45;5.85;;;13.00;99.90;;;;;;5083818;28;20040;-67
2022/06/02 03:15:15;;;;;;;7.72;5.93;;;13.00;99.90;;;;;;5087295;28;20048;-67
2022/06/02 03:18:06;;;;;;;9.95;5.90;;;13.00;99.90;;;;;;5093996;28;20052;-66
2022/06/02 03:20:59;;;;;;;8.45;6.72;;;13.00;99.90;;;;;;5092801;28;20061;-67
2022/06/02 03:23:44;;;;;;;6.80;5.55;;;13.00;99.90;;;;;;5080797;28;20052;-67
2022/06/02 03:26:35;;;;;;;9.23;5.43;;;13.00;99.90;;;;;;5073797;28;20481;-66
2022/06/02 03:29:36;;;;;;;6.45;5.10;;;12.90;99.90;;;;;;5073568;28;20048;-66
2022/06/02 03:32:31;;;;;;;5.28;4.65;;;13.00;99.90;;;;;;5085656;28;20039;-67
2022/06/02 03:35:13;;;;;;;6.80;4.60;;;13.00;99.90;;;;;;5073557;28;20053;-66
2022/06/02 03:37:54;;;;;;;10.02;5.18;;;13.00;99.90;;;;;;5073394;28;20123;-67
2022/06/02 03:40:42;;;;;;;7.43;4.97;;;13.00;99.90;;;;;;5072746;28;20043;-67
2022/06/02 03:43:31;;;;;;;8.07;4.85;;;13.00;99.90;;;;;;5073480;28;20102;-67
2022/06/02 03:46:19;;;;;;;7.60;5.72;;;13.10;99.90;;;;;;5073267;28;20052;-66
2022/06/02 03:49:29;;;;;;;7.53;4.95;;;13.10;99.90;;;;;;5084206;28;20044;-66
2022/06/02 03:52:37;;;;;;;7.72;5.50;;;13.10;99.90;;;;;;5092664;28;20063;-67
2022/06/02 03:55:34;;;;;;;13.77;6.65;;;13.10;99.90;;;;;;5086066;28;20059;-66
2022/06/02 03:58:22;;;;;;;13.00;5.80;;;13.20;99.90;;;;;;5076768;28;20048;-66
2022/06/02 04:00:53;;;;;;;10.33;6.03;;;13.20;99.90;;;;;;5091636;28;20043;-66
2022/06/02 04:03:44;;;;;;;8.02;4.93;;;13.20;99.90;;;;;;5093328;28;20139;-66
2022/06/02 04:06:40;;;;;;;6.55;4.60;;;13.20;99.90;;;;;;5079241;28;20036;-66
2022/06/02 04:09:18;;;;;;;5.05;4.25;;;13.20;99.90;;;;;;5085920;28;20055;-67
2022/06/02 04:15:24;;;;;;;8.10;4.47;;;13.20;99.90;;;;;;5088330;28;20060;-66
2022/06/02 04:18:11;;;;;;;6.90;5.00;;;13.20;99.90;;;;;;5091970;28;20044;-66
2022/06/02 04:21:10;;;;;;;7.22;5.30;;;13.10;99.90;;;;;;5092607;28;20042;-66
2022/06/02 04:23:49;;;;;;;9.95;5.30;;;13.20;99.90;;;;;;5091284;28;20054;-66
2022/06/02 04:26:49;;;;;;;5.15;3.92;;;13.10;99.90;;;;;;5076112;28;20034;-66
2022/06/02 04:29:40;;;;;;;6.63;3.85;;;13.10;99.90;;;;;;5072319;28;20045;-66
2022/06/02 04:32:15;;;;;;;4.40;4.00;;;13.10;99.90;;;;;;5074257;28;20501;-66
2022/06/02 04:35:07;;;;;;;4.43;3.20;;;13.20;99.90;;;;;;5083886;28;20036;-66
2022/06/02 04:38:29;;;;;;;3.92;2.75;;;13.20;99.90;;;;;;5072078;28;20056;-66
2022/06/02 04:41:18;;;;;;;5.57;3.05;;;13.20;99.90;;;;;;5009622;28;20053;-66
2022/06/02 04:43:52;;;;;;;4.85;3.38;;;13.20;99.90;;;;;;5085673;28;20052;-66
2022/06/02 04:46:53;;;;;;;4.90;3.10;;;13.20;99.90;;;;;;5071900;28;20068;-66
2022/06/02 04:49:49;;;;;;;5.00;4.25;;;13.20;99.90;;;;;;5071944;28;20054;-66
2022/06/02 04:52:35;;;;;;;9.18;4.88;;;13.40;99.90;;;;;;5071779;28;20493;-66
2022/06/02 04:55:08;;;;;;;8.10;4.90;;;13.40;99.90;;;;;;5071926;28;20044;-66
2022/06/02 04:57:58;;;;;;;8.43;6.18;;;13.50;99.90;;;;;;5071767;28;20059;-66
2022/06/02 05:00:51;;;;;;;7.72;6.30;;;13.50;99.90;;;;;;5063353;28;20060;-66
2022/06/02 05:03:33;;;;;;;5.68;4.43;;;13.60;99.90;;;;;;5086615;28;20031;-66
2022/06/02 05:06:31;;;;;;;7.15;5.75;;;13.60;99.90;;;;;;5086828;28;20515;-66
2022/06/02 05:09:32;;;;;;;10.00;6.72;;;13.70;99.90;;;;;;5061159;28;20516;-65
2022/06/02 05:12:20;;;;;;;10.13;6.97;;;13.80;99.90;;;;;;5076398;28;20040;-65
2022/06/02 05:15:07;;;;;;;10.55;7.50;;;13.90;99.90;;;;;;5071656;28;20040;-65
2022/06/02 05:18:24;;;;;;;10.98;7.03;;;14.00;99.90;;;;;;5080087;28;20044;-66
2022/06/02 05:21:07;;;;;;;7.88;4.05;;;14.00;99.90;;;;;;5082104;28;20117;-65
2022/06/02 05:24:17;;;;;;;3.38;3.08;;;14.00;99.90;;;;;;5082171;28;20090;-65
2022/06/02 05:27:21;;;;;;;5.20;2.88;;;14.10;99.90;;;;;;5079098;28;20052;-65
2022/06/02 05:30:00;;;;;;;12.23;4.00;;;14.20;99.90;;;;;;5080071;28;20051;-66
2022/06/02 05:33:00;;;;;;;4.78;3.70;;;14.10;99.90;;;;;;5078248;28;20036;-65
2022/06/02 05:36:15;;;;;;;6.18;4.18;;;14.10;99.90;;;;;;5077629;28;20040;-65
2022/06/02 05:38:59;;;;;;;6.70;5.18;;;14.10;99.90;;;;;;5074606;28;20489;-65
2022/06/02 05:41:57;;;;;;;7.07;5.50;;;14.10;99.90;;;;;;5080761;28;20032;-65
2022/06/02 05:44:45;;;;;;;8.55;5.53;;;14.20;99.90;;;;;;5079298;28;20033;-65
2022/06/02 05:47:34;;;;;;;9.95;6.22;;;14.30;99.90;;;;;;5076146;28;20519;-65
2022/06/02 05:50:28;;;;;;;10.07;5.55;;;14.30;99.90;;;;;;5074678;28;20044;-65
2022/06/02 05:53:02;;;;;;;9.52;6.13;;;14.30;99.90;;;;;;5089540;28;20393;-65
2022/06/02 05:55:46;;;;;;;8.68;5.63;;;14.40;99.90;;;;;;5081006;28;20033;-65
2022/06/02 05:58:34;;;;;;;6.78;4.43;;;14.50;99.90;;;;;;5083368;28;20036;-65
2022/06/02 06:01:29;;;;;;;8.63;4.72;;;14.60;99.90;;;;;;5078364;28;20493;-65
2022/06/02 06:04:09;;;;;;;4.82;4.18;;;14.80;99.90;;;;;;5070417;28;20044;-65
2022/06/02 06:06:56;;;;;;;7.53;4.70;;;14.80;99.90;;;;;;5083189;28;20501;-65
2022/06/02 06:13:15;;;;;;;7.63;4.63;;;14.90;99.90;;;;;;5099833;28;20072;-70
2022/06/02 06:15:53;;;;;;;6.75;4.47;;;15.00;99.90;;;;;;5101105;28;20056;-69
2022/06/02 06:18:27;;;;;;;10.20;4.05;;;15.20;99.90;;;;;;5086876;28;20048;-69
2022/06/02 06:21:05;;;;;;;6.88;4.30;;;15.20;99.90;;;;;;5082342;28;20043;-69
2022/06/02 06:23:59;;;;;;;7.93;4.53;;;15.10;99.90;;;;;;5091267;28;20033;-69
2022/06/02 06:26:47;;;;;;;7.80;5.00;;;15.10;99.90;;;;;;5091154;28;20044;-69
2022/06/02 06:29:49;;;;;;;7.68;4.22;;;15.00;99.90;;;;;;5084895;28;20420;-69
2022/06/02 06:32:32;;;;;;;9.35;4.80;;;15.00;99.90;;;;;;5070867;28;20198;-69
2022/06/02 06:35:14;;;;;;;5.22;4.20;;;15.20;99.90;;;;;;5070666;28;20106;-69
2022/06/02 06:38:08;;;;;;;5.28;4.22;;;15.30;99.90;;;;;;5080314;28;20043;-69
2022/06/02 06:40:46;;;;;;;7.57;3.90;;;15.50;99.90;;;;;;5082077;28;20142;-69
2022/06/02 06:43:55;;;;;;;4.93;4.25;;;15.70;99.90;;;;;;5090975;28;20071;-69
2022/06/02 06:46:36;;;;;;;11.73;5.50;;;16.00;99.90;;;;;;5090565;28;20188;-68
2022/06/02 06:49:27;;;;;;;9.32;4.60;;;16.30;99.90;;;;;;5078890;28;20032;-70
2022/06/02 06:52:26;;;;;;;7.10;4.35;;;16.60;99.90;;;;;;5070444;28;20056;-69
2022/06/02 06:55:20;;;;;;;3.25;2.95;;;16.80;99.90;;;;;;5074599;28;20048;-69
2022/06/02 06:58:08;;;;;;;3.88;3.20;;;16.70;99.90;;;;;;5085799;28;20573;-69
2022/06/02 07:01:16;;;;;;;6.18;3.33;;;16.80;99.90;;;;;;5093822;28;20048;-69
2022/06/02 07:04:11;;;;;;;3.60;3.22;;;16.90;99.90;;;;;;5093813;28;20044;-69
2022/06/02 07:06:57;;;;;;;3.75;3.42;;;16.90;99.90;;;;;;5085833;28;20033;-69
2022/06/02 07:09:30;;;;;;;6.50;3.85;;;17.00;99.90;;;;;;5094032;28;20423;-69
2022/06/02 07:15:20;;;;;;;4.25;3.80;;;17.10;99.90;;;;;;5084543;28;20064;-69
2022/06/02 07:18:03;;;;;;;6.53;3.67;;;17.10;99.90;;;;;;5092281;28;20052;-70
2022/06/02 07:21:00;;;;;;;3.85;3.10;;;17.10;99.90;;;;;;5093418;28;20040;-69
2022/06/02 07:23:26;;;;;;;3.97;3.30;;;17.20;99.90;;;;;;5083571;28;20048;-69
2022/06/02 07:26:31;;;;;;;6.18;3.58;;;17.50;99.90;;;;;;5093328;28;20215;-69
2022/06/02 07:29:29;;;;;;;6.88;3.53;;;17.40;99.90;;;;;;5092905;28;20052;-69
2022/06/02 07:32:17;;;;;;;6.00;3.38;;;17.10;99.90;;;;;;5092413;28;20048;-68
2022/06/02 07:35:13;;;;;;;5.55;3.47;;;17.20;99.90;;;;;;5093706;28;20492;-69
2022/06/02 07:38:18;;;;;;;4.30;3.42;;;17.30;99.90;;;;;;5093105;28;20048;-68
2022/06/02 07:41:19;;;;;;;4.07;3.10;;;17.80;99.90;;;;;;5059019;28;20048;-70
2022/06/02 07:44:24;;;;;;;8.80;3.22;;;18.00;99.90;;;;;;5093444;28;20052;-70
2022/06/02 07:47:36;;;;;;;6.15;2.88;;;18.30;99.90;;;;;;5090303;28;20059;-70
2022/06/02 07:50:25;;;;;;;2.72;2.53;;;18.40;99.90;;;;;;5052959;28;20053;-70
2022/06/02 07:53:15;;;;;;;4.78;3.08;;;18.60;99.90;;;;;;5056039;28;20040;-69
2022/06/02 07:55:44;;;;;;;5.05;2.72;;;18.50;99.90;;;;;;5092855;28;20109;-69
2022/06/02 07:58:27;;;;;;;2.58;2.38;;;18.40;99.90;;;;;;5084707;28;20078;-69
2022/06/02 08:01:18;;;;;;;3.38;2.55;;;18.30;99.90;;;;;;5092803;28;20105;-68
2022/06/02 08:04:34;;;;;;;3.42;2.53;;;18.30;99.90;;;;;;5090248;28;20040;-69
2022/06/02 08:07:12;;;;;;;6.07;2.97;;;18.40;99.90;;;;;;5057920;28;20048;-69
2022/06/02 08:09:55;;;;;;;7.13;3.08;;;18.60;99.90;;;;;;5072514;28;20051;-69
2022/06/02 08:12:48;;;;;;;3.70;2.97;;;18.70;99.90;;;;;;5080030;28;20048;-69
2022/06/02 08:15:49;;;;;;;5.75;3.22;;;18.40;99.90;;;;;;5082783;28;20063;-68
2022/06/02 08:18:30;;;;;;;3.95;3.25;;;18.20;99.90;;;;;;5092813;28;20044;-68
2022/06/02 08:21:16;;;;;;;4.55;3.33;;;18.30;99.90;;;;;;5083833;28;20040;-68
2022/06/02 08:24:07;;;;;;;5.55;3.60;;;18.70;99.90;;;;;;5083549;28;20052;-68
2022/06/02 08:27:12;;;;;;;3.53;2.92;;;18.40;99.90;;;;;;5042779;28;20051;-69
2022/06/02 08:30:06;;;;;;;3.67;2.58;;;18.50;99.90;;;;;;5092457;28;20071;-69
2022/06/02 08:33:04;;;;;;;4.00;2.60;;;18.70;99.90;;;;;;5083463;28;20044;-69
2022/06/02 08:35:45;;;;;;;2.80;2.50;;;19.00;99.90;;;;;;5083530;28;20428;-69
2022/06/02 08:38:33;;;;;;;4.65;2.80;;;19.20;99.90;;;;;;5092362;28;20093;-69
2022/06/02 08:41:28;;;;;;;5.85;2.88;;;19.30;99.90;;;;;;5091503;28;20049;-69
2022/06/02 08:44:06;;;;;;;4.03;2.63;;;19.50;99.90;;;;;;5083816;28;20044;-70
2022/06/02 08:47:00;;;;;;;5.82;2.60;;;19.70;99.90;;;;;;5092431;28;20040;-69
2022/06/02 08:49:55;;;;;;;3.33;1.83;;;19.60;99.90;;;;;;5091797;28;20055;-69
2022/06/02 08:52:49;;;;;;;3.00;2.03;;;19.60;99.90;;;;;;5080115;28;20051;-69
2022/06/02 08:55:28;;;;;;;5.43;2.30;;;19.70;99.90;;;;;;5072024;28;20044;-70
2022/06/02 08:58:29;;;;;;;2.88;2.20;;;19.70;99.90;;;;;;5071888;28;20101;-70
2022/06/02 09:01:31;;;;;;;2.65;1.90;;;19.70;99.90;;;;;;5090690;28;20488;-69
2022/06/02 09:04:25;;;;;;;4.00;1.92;;;19.70;99.90;;;;;;5052320;28;20080;-69
2022/06/02 09:06:52;;;;;;;;;;;19.90;99.90;;;;;;5091362;28;20036;-70
2022/06/02 09:09:58;;;;;;;2.40;2.03;;;20.00;99.90;;;;;;5091283;28;19920;-69
2022/06/02 09:12:50;;;;;;;2.75;2.22;;;19.70;99.90;;;;;;5090300;28;20054;-69
2022/06/02 09:15:46;;;;;;;2.42;1.92;;;19.40;99.90;;;;;;5088855;28;20368;-70
2022/06/02 09:18:14;;;;;;;1.77;1.67;;;19.60;99.90;;;;;;5079218;28;20488;-70
2022/06/02 09:21:05;;;;;;;3.88;2.20;;;19.60;99.90;;;;;;5071266;28;20045;-69
2022/06/02 09:23:44;;;;;;;2.42;1.90;;;19.60;99.90;;;;;;5071468;28;20036;-70
2022/06/02 09:26:38;;;;;;;2.55;1.90;;;19.70;99.90;;;;;;5084984;28;20047;-70
2022/06/02 09:29:22;;;;;;;3.35;2.03;;;19.70;99.90;;;;;;5071398;28;20044;-70
2022/06/02 09:31:49;;;;;;;3.13;1.58;;;19.70;99.90;;;;;;5071219;28;20048;-69
2022/06/02 09:34:41;;;;;;;5.70;1.75;;;19.60;99.90;;;;;;5071862;28;20158;-70
2022/06/02 09:37:53;;;;;;;1.50;1.40;;;19.60;99.90;;;;;;5079574;28;20036;-69
2022/06/02 09:40:44;;;;;;;1.67;1.30;;;19.60;99.90;;;;;;5045773;28;20055;-69
2022/06/02 09:43:36;;;;;;;3.13;1.67;;;19.60;99.90;;;;;;5071902;28;20025;-69
2022/06/02 09:46:21;;;;;;;1.30;1.20;;;19.80;99.90;;;;;;5079617;28;20040;-70
2022/06/02 09:49:20;;;;;;;2.00;1.30;;;20.10;99.90;;;;;;5071046;28;20080;-69
2022/06/02 09:52:19;;;;;;;3.90;1.75;;;20.40;99.90;;;;;;5083069;28;20044;-70
2022/06/02 09:54:58;;;;;;;;;;;20.50;99.90;;;;;;5089746;28;20114;-69
2022/06/02 09:57:55;;;;;;;;;;;20.70;99.90;;;;;;5089289;28;20269;-69
2022/06/02 10:00:44;;;;;;;3.97;1.38;;;20.30;99.90;;;;;;5070629;28;19926;-69
2022/06/02 10:03:10;;;;;;;;;;;20.30;99.90;;;;;;5075716;28;20036;-70
2022/06/02 10:05:40;;;;;;;2.45;1.70;;;20.50;99.90;;;;;;5082420;28;19956;-70
2022/06/02 10:08:34;;;;;;;10.40;4.68;;;20.80;99.90;;;;;;5091125;28;20322;-69
2022/06/02 10:11:18;;;;;;;6.97;3.00;;;20.70;99.90;;;;;;5090887;28;20048;-70
2022/06/02 10:13:59;;;;;;;2.70;1.65;;;20.80;99.90;;;;;;5080743;28;20474;-70
2022/06/02 10:17:13;;;;;;;4.57;1.92;;;20.80;99.90;;;;;;5091135;28;20047;-70
2022/06/02 10:20:18;;;;;;;4.22;2.30;;;20.40;99.90;;;;;;5090675;28;20040;-69
2022/06/02 10:23:11;;;;;;;5.15;1.92;;;20.30;99.90;;;;;;5081152;28;20382;-69
2022/06/02 10:26:04;;;;;;;5.05;1.70;;;20.20;99.90;;;;;;5091066;28;20044;-70
2022/06/02 10:28:43;;;;;;;2.67;1.52;;;20.20;99.90;;;;;;5089484;28;20036;-70
2022/06/02 10:31:28;;;;;;;3.22;1.55;;;20.60;99.90;;;;;;5087877;28;20499;-70
2022/06/02 10:34:16;;;;;;;3.30;1.33;;;21.10;99.90;;;;;;5094937;28;20051;-71
2022/06/02 10:37:00;;;;;;;1.98;1.38;;;21.40;99.90;;;;;;5094590;28;20040;-70
2022/06/02 10:39:56;;;;;;;4.70;1.67;;;21.40;99.90;;;;;;5086809;28;20115;-71
2022/06/02 10:42:38;;;;;;;4.22;1.80;;;21.20;99.90;;;;;;5074404;28;20494;-70
2022/06/02 10:45:53;;;;;;;2.83;1.38;;;21.20;99.90;;;;;;5074189;28;20044;-70
2022/06/02 10:49:02;;;;;;;1.00;0.90;;;21.00;99.90;;;;;;5082483;28;20041;-70
2022/06/02 10:51:54;;;;;;;2.55;1.20;;;20.70;99.90;;;;;;5035475;28;20270;-70
2022/06/02 10:54:37;;;;;;;1.27;1.05;;;20.60;99.90;;;;;;5074271;28;20063;-70
2022/06/02 10:57:25;;;;;;;1.15;1.02;;;20.50;99.90;;;;;;5088371;28;20036;-70
2022/06/02 11:00:17;;;;;;;3.05;1.50;;;20.80;99.90;;;;;;5075284;28;20044;-70
2022/06/02 11:02:53;;;;;;;1.63;1.45;;;20.80;99.90;;;;;;5094264;28;20036;-70
2022/06/02 11:05:39;;;;;;;2.25;1.40;;;20.80;99.90;;;;;;5082222;28;20033;-70
2022/06/02 11:09:04;;;;;;;1.55;1.45;;;20.90;99.90;;;;;;5073748;28;20052;-70
2022/06/02 11:11:56;;;;;;;1.75;1.27;;;20.80;99.90;;;;;;5073510;28;20047;-70
2022/06/02 11:14:41;;;;;;;2.00;1.25;;;20.90;99.90;;;;;;5082764;28;20041;-70
2022/06/02 11:17:32;;;;;;;2.72;1.45;;;21.00;99.90;;;;;;5073779;28;20045;-70
2022/06/02 11:20:30;;;;;;;1.60;1.40;;;21.00;99.90;;;;;;5073238;28;20443;-70
2022/06/02 11:23:16;;;;;;;1.40;1.30;;;21.20;99.90;;;;;;5081913;28;20062;-70
2022/06/02 11:26:27;;;;;;;3.38;1.30;;;21.40;99.90;;;;;;5093035;28;20075;-70
2022/06/02 11:29:14;;;;;;;2.33;1.02;;;21.30;99.90;;;;;;5093680;28;20047;-70
2022/06/02 11:31:59;;;;;;;1.25;1.15;;;21.70;99.90;;;;;;5082616;28;20504;-70
2022/06/02 11:35:08;;;;;;;1.20;1.10;;;22.00;99.90;;;;;;5093645;28;20059;-70
2022/06/02 11:37:54;;;;;;;1.20;1.10;;;22.10;99.90;;;;;;5046774;28;20141;-70
2022/06/02 11:40:57;;;;;;;2.15;1.35;;;22.30;99.90;;;;;;5083317;28;20404;-70
2022/06/02 11:43:52;;;;;;;2.28;1.10;;;22.70;99.90;;;;;;5093365;28;20055;-70
2022/06/02 11:46:41;;;;;;;5.00;1.50;;;22.90;99.90;;;;;;5050791;28;20122;-71
2022/06/02 11:49:39;;;;;;;3.63;1.63;;;23.10;99.90;;;;;;5090281;28;20038;-71
2022/06/02 11:52:24;;;;;;;2.78;1.52;;;23.00;99.90;;;;;;5085938;28;20040;-70
2022/06/02 11:54:57;;;;;;;2.15;1.65;;;23.20;99.90;;;;;;5093295;28;20044;-71
2022/06/02 11:57:49;;;;;;;2.13;1.50;;;23.20;99.90;;;;;;5092726;28;20044;-71
2022/06/02 12:00:41;;;;;;;3.50;1.73;;;22.90;99.90;;;;;;5086889;28;20051;-71
2022/06/02 12:03:43;;;;;;;2.22;1.50;;;22.80;99.90;;;;;;5093489;28;20403;-71
2022/06/02 12:06:47;;;;;;;1.60;1.50;;;22.80;99.90;;;;;;5092518;28;20035;-71
2022/06/02 12:13:45;;;;;;;2.45;1.48;;;22.90;99.90;;;;;;5103827;28;20133;-64
2022/06/02 12:16:49;;;;;;;3.88;1.33;;;23.60;99.90;;;;;;5092780;28;20044;-64
2022/06/02 12:19:16;;;;;;;4.63;1.58;;;23.50;99.90;;;;;;5083388;28;20051;-64
2022/06/02 12:21:51;;;;;;;1.45;1.35;;;23.50;99.90;;;;;;5075987;28;20044;-64
2022/06/02 12:24:50;;;;;;;2.25;1.40;;;23.30;99.90;;;;;;5084324;28;20044;-64
2022/06/02 12:27:51;;;;;;;1.73;1.10;;;23.00;99.90;;;;;;5092688;28;20059;-64
2022/06/02 12:30:37;;;;;;;4.53;1.60;;;22.70;99.90;;;;;;5091258;28;20036;-65
2022/06/02 12:33:04;;;;;;;3.08;1.70;;;22.40;99.90;;;;;;5085105;28;20385;-64
2022/06/02 12:35:40;;;;;;;3.35;1.60;;;22.30;99.90;;;;;;5092505;28;20040;-64
2022/06/02 12:38:44;;;;;;;3.13;1.40;;;22.10;99.90;;;;;;5074592;28;20048;-64
2022/06/02 12:41:47;;;;;;;1.55;1.33;;;21.90;99.90;;;;;;5077077;28;20489;-64
2022/06/02 12:44:47;;;;;;;2.30;1.48;;;21.90;99.90;;;;;;5071903;28;20056;-64
2022/06/02 12:47:51;;;;;;;4.13;1.58;;;21.90;99.90;;;;;;5072537;28;20055;-64
2022/06/02 12:50:51;;;;;;;3.53;1.55;;;22.20;99.90;;;;;;5079710;28;20094;-64
2022/06/02 12:53:42;;;;;;;2.90;1.40;;;22.60;99.90;;;;;;5060157;28;20056;-65
2022/06/02 12:56:47;;;;;;;2.25;1.40;;;22.90;99.90;;;;;;5075282;28;20048;-64
2022/06/02 12:59:37;;;;;;;13.27;2.13;;;23.10;99.90;;;;;;5079827;28;20086;-65
2022/06/02 13:02:07;;;;;;;2.92;1.33;;;23.10;99.90;;;;;;5071416;28;20094;-64
2022/06/02 13:04:52;;;;;;;5.28;1.20;;;23.10;99.90;;;;;;5071671;28;20130;-65
2022/06/02 13:07:37;;;;;;;4.43;1.42;;;23.00;99.90;;;;;;5082603;28;20048;-64
2022/06/02 13:10:30;;;;;;;8.07;1.40;;;23.10;99.90;;;;;;5071050;28;20520;-64
2022/06/02 13:13:12;;;;;;;4.88;1.77;;;23.10;99.90;;;;;;5062594;28;20056;-65
2022/06/02 13:16:19;;;;;;;5.93;1.50;;;22.90;99.90;;;;;;5080160;28;20405;-64
2022/06/02 13:19:28;;;;;;;4.00;1.50;;;23.10;99.90;;;;;;5090215;28;20047;-65
2022/06/02 13:22:38;;;;;;;2.40;1.35;;;23.60;99.90;;;;;;5090834;28;20047;-64
2022/06/02 13:25:36;;;;;;;3.42;1.50;;;23.90;99.90;;;;;;5079402;28;20032;-64
2022/06/02 13:28:28;;;;;;;2.50;1.60;;;24.00;99.90;;;;;;5071576;28;20059;-64
2022/06/02 13:31:34;;;;;;;7.15;1.83;;;23.70;99.90;;;;;;5070957;28;20037;-64
2022/06/02 13:34:09;;;;;;;3.05;1.85;;;23.70;99.90;;;;;;5058694;28;20114;-64
2022/06/02 13:36:41;;;;;;;1.80;1.70;;;23.70;99.90;;;;;;5092211;28;20044;-64
2022/06/02 13:39:26;;;;;;;2.67;2.00;;;23.70;99.90;;;;;;5091632;28;20089;-64
2022/06/02 13:42:30;;;;;;;5.65;2.10;;;23.30;99.90;;;;;;5080367;28;20041;-64
2022/06/02 13:45:34;;;;;;;3.60;2.33;;;23.10;99.90;;;;;;5091138;28;20114;-64
2022/06/02 13:48:19;;;;;;;4.35;2.20;;;23.00;99.90;;;;;;5090813;28;20492;-64
2022/06/02 13:50:46;;;;;;;3.30;1.90;;;23.00;99.90;;;;;;5082396;28;20098;-64
2022/06/02 14:00:03;;;;;;;3.38;2.38;;;23.00;99.90;;;;;;5088807;28;20116;-64
2022/06/02 14:03:00;;;;;;;8.23;2.20;;;22.30;99.90;;;;;;5089161;28;20059;-64
2022/06/02 14:05:48;;;;;;;4.28;2.10;;;21.70;99.90;;;;;;5082911;28;20040;-64
2022/06/02 14:09:13;;;;;;;5.33;2.30;;;21.30;99.90;;;;;;5075127;28;20102;-64
2022/06/02 14:12:03;;;;;;;4.38;2.08;;;21.00;99.90;;;;;;5014121;28;21110;-64
2022/06/02 14:14:32;;;;;;;3.10;2.00;;;20.80;99.90;;;;;;5023581;28;20049;-64
2022/06/02 14:17:17;;;;;;;10.73;2.58;;;20.80;99.90;;;;;;5081972;28;20052;-64
2022/06/02 14:19:50;;;;;;;4.22;2.20;;;20.90;99.90;;;;;;5094432;28;20040;-64
2022/06/02 14:22:22;;;;;;;6.07;2.33;;;20.90;99.90;;;;;;5086611;28;20052;-64
2022/06/02 14:25:03;;;;;;;2.20;2.00;;;21.00;99.90;;;;;;5095250;28;20077;-64
2022/06/02 14:27:45;;;;;;;6.70;2.15;;;21.00;99.90;;;;;;5094838;28;20051;-64
2022/06/02 14:30:14;;;;;;;3.08;2.33;;;21.00;99.90;;;;;;5093827;28;20496;-64
2022/06/02 14:33:05;;;;;;;3.53;2.30;;;21.10;99.90;;;;;;5086497;28;20044;-64
2022/06/02 14:35:50;;;;;;;3.95;2.00;;;21.20;99.90;;;;;;5094760;28;20451;-64
2022/06/02 14:38:54;;;;;;;2.20;2.00;;;21.30;99.90;;;;;;5094143;28;20082;-64
2022/06/02 14:41:33;;;;;;;4.28;2.00;;;21.30;99.90;;;;;;5089221;28;20097;-64
2022/06/02 14:44:06;;;;;;;4.28;2.30;;;21.50;99.90;;;;;;5094736;28;20066;-64
2022/06/02 14:46:44;;;;;;;6.50;2.30;;;21.70;99.90;;;;;;5093914;28;20056;-64
2022/06/02 14:49:31;;;;;;;2.50;2.10;;;22.00;99.90;;;;;;5086548;28;20438;-64
2022/06/02 14:52:13;;;;;;;3.90;2.25;;;22.30;99.90;;;;;;5094548;28;20049;-64
2022/06/02 14:54:57;;;;;;;4.03;2.40;;;23.00;99.90;;;;;;5094530;28;20082;-65
2022/06/02 14:57:40;;;;;;;3.15;2.20;;;24.00;99.90;;;;;;5093914;28;20548;-65
2022/06/02 15:00:31;;;;;;;2.55;2.05;;;24.60;99.90;;;;;;5086829;28;20105;-64
2022/06/02 15:03:16;;;;;;;2.17;1.98;;;24.60;99.90;;;;;;5094513;28;20443;-64
2022/06/02 15:05:55;;;;;;;3.17;2.10;;;24.60;99.90;;;;;;5093816;28;20040;-64